Time;durP1;ratioP1;P1;durP2;ratioP2;P2;SDS_P1;SDS_P2;PMS_P1;PMS_P2;Temp;Humidity;BMP_temperature;BMP_pressure;BME280_temperature;BME280_humidity;BME280_pressure;Samples;Min_cycle;Max_cycle;Signal;HPM_P1;HPM_P2
2021/12/22 00:02:11;;;;;;;29.70;12.10;;;;;;;;;;4194157;28;21939;-72
2021/12/22 00:04:44;;;;;;;33.60;13.03;;;;;;;;;;4197684;28;20418;-71
2021/12/22 00:07:11;;;;;;;41.50;13.67;;;;;;;;;;4195307;28;20251;-70
2021/12/22 00:09:37;;;;;;;32.30;12.07;;;;;;;;;;4198750;28;20283;-72
2021/12/22 00:12:04;;;;;;;41.30;13.07;;;;;;;;;;4197168;28;20246;-72
2021/12/22 00:14:30;;;;;;;36.73;13.37;;;;;;;;;;4224457;28;20231;-71
2021/12/22 00:16:56;;;;;;;32.33;12.50;;;;;;;;;;4203579;28;25900;-72
2021/12/22 00:19:23;;;;;;;44.90;16.20;;;;;;;;;;4225758;28;20239;-73
2021/12/22 00:21:49;;;;;;;33.87;13.80;;;;;;;;;;4198781;28;20421;-72
2021/12/22 00:24:16;;;;;;;36.07;13.60;;;;;;;;;;4212059;28;20304;-73
2021/12/22 00:26:42;;;;;;;32.17;11.57;;;;;;;;;;4199267;28;25855;-72
2021/12/22 00:29:09;;;;;;;34.10;12.23;;;;;;;;;;4211085;28;20771;-70
2021/12/22 00:31:42;;;;;;;29.30;10.80;;;;;;;;;;4222203;28;20244;-73
2021/12/22 00:34:16;;;;;;;28.83;11.40;;;;;;;;;;4212448;28;20221;-72
2021/12/22 00:36:45;;;;;;;27.93;12.50;;;;;;;;;;4198807;28;20798;-74
2021/12/22 00:39:12;;;;;;;29.57;10.90;;;;;;;;;;4207260;28;21301;-75
2021/12/22 00:41:38;;;;;;;29.53;11.77;;;;;;;;;;4213555;28;20386;-72
2021/12/22 00:44:05;;;;;;;26.73;11.47;;;;;;;;;;4221098;28;20254;-74
2021/12/22 00:46:34;;;;;;;27.20;11.60;;;;;;;;;;4203914;28;23863;-73
2021/12/22 00:49:01;;;;;;;24.70;11.33;;;;;;;;;;4208261;28;20236;-74
2021/12/22 00:51:28;;;;;;;28.30;11.87;;;;;;;;;;4218863;28;20433;-71
2021/12/22 00:53:54;;;;;;;26.03;11.60;;;;;;;;;;4203482;28;20234;-73
2021/12/22 00:56:21;;;;;;;24.53;11.57;;;;;;;;;;4210809;28;20780;-70
2021/12/22 00:58:47;;;;;;;27.57;11.40;;;;;;;;;;4213570;28;20317;-75
2021/12/22 01:01:14;;;;;;;27.50;11.53;;;;;;;;;;4217146;28;20236;-72
2021/12/22 01:03:40;;;;;;;28.43;11.23;;;;;;;;;;4199805;28;20229;-71
2021/12/22 01:06:07;;;;;;;28.97;10.97;;;;;;;;;;4199131;28;22176;-71
2021/12/22 01:08:33;;;;;;;27.33;11.67;;;;;;;;;;4206416;28;20247;-72
2021/12/22 01:11:00;;;;;;;33.83;12.20;;;;;;;;;;4224993;28;20645;-70
2021/12/22 01:13:28;;;;;;;28.43;11.83;;;;;;;;;;4199008;28;20237;-73
2021/12/22 01:15:55;;;;;;;30.63;12.27;;;;;;;;;;4201489;28;20243;-73
2021/12/22 01:18:32;;;;;;;26.47;12.00;;;;;;;;;;4216796;28;20235;-72
2021/12/22 01:23:39;;;;;;;32.43;12.77;;;;;;;;;;4204417;28;21520;-73
2021/12/22 01:26:08;;;;;;;29.73;11.53;;;;;;;;;;4200113;28;20244;-76
2021/12/22 01:28:41;;;;;;;27.23;11.73;;;;;;;;;;4211237;28;20241;-72
2021/12/22 01:31:13;;;;;;;31.07;12.87;;;;;;;;;;4205871;28;20357;-72
2021/12/22 01:33:39;;;;;;;26.60;12.00;;;;;;;;;;4201715;28;20482;-72
2021/12/22 01:36:07;;;;;;;31.87;12.97;;;;;;;;;;4200401;28;20340;-71
2021/12/22 01:38:33;;;;;;;30.30;12.53;;;;;;;;;;4217782;28;20236;-70
2021/12/22 01:41:00;;;;;;;29.47;12.57;;;;;;;;;;4204128;28;20244;-72
2021/12/22 01:43:27;;;;;;;27.83;12.67;;;;;;;;;;4210637;28;21851;-71
2021/12/22 01:46:09;;;;;;;29.80;13.07;;;;;;;;;;4209108;28;20231;-72
2021/12/22 01:51:29;;;;;;;27.93;13.07;;;;;;;;;;4206616;28;20227;-71
2021/12/22 01:54:00;;;;;;;29.27;13.70;;;;;;;;;;4189350;28;20302;-72
2021/12/22 01:56:30;;;;;;;28.20;12.73;;;;;;;;;;4189028;28;20673;-71
2021/12/22 01:58:57;;;;;;;25.97;12.47;;;;;;;;;;4183672;28;20325;-71
2021/12/22 02:01:24;;;;;;;30.63;13.93;;;;;;;;;;4199767;28;23262;-73
2021/12/22 02:03:51;;;;;;;29.37;12.80;;;;;;;;;;4195858;28;25866;-73
2021/12/22 02:06:18;;;;;;;30.20;12.43;;;;;;;;;;4186716;28;20241;-71
2021/12/22 02:08:45;;;;;;;29.27;12.47;;;;;;;;;;4190039;28;21911;-71
2021/12/22 02:11:15;;;;;;;30.77;13.50;;;;;;;;;;4194011;28;20235;-72
2021/12/22 02:13:46;;;;;;;25.90;11.73;;;;;;;;;;4185175;28;20242;-72
2021/12/22 02:16:15;;;;;;;23.93;11.60;;;;;;;;;;4197512;28;20614;-71
2021/12/22 02:18:44;;;;;;;30.40;12.53;;;;;;;;;;4183262;28;20238;-73
2021/12/22 02:21:10;;;;;;;30.17;13.00;;;;;;;;;;4188771;28;20240;-70
2021/12/22 02:23:37;;;;;;;29.03;12.97;;;;;;;;;;4191990;28;20234;-71
2021/12/22 02:26:12;;;;;;;31.60;12.60;;;;;;;;;;4180744;28;20236;-70
2021/12/22 02:28:44;;;;;;;30.53;12.40;;;;;;;;;;4178100;28;20232;-71
2021/12/22 02:31:14;;;;;;;28.47;12.60;;;;;;;;;;4196025;28;23025;-73
2021/12/22 02:33:43;;;;;;;30.40;12.90;;;;;;;;;;4191366;28;20411;-72
2021/12/22 02:36:21;;;;;;;22.80;11.43;;;;;;;;;;4202465;28;20235;-72
2021/12/22 02:38:58;;;;;;;29.73;12.67;;;;;;;;;;4180748;28;21505;-72
2021/12/22 02:41:27;;;;;;;32.20;13.23;;;;;;;;;;4186380;28;20241;-71
2021/12/22 02:43:55;;;;;;;37.23;15.30;;;;;;;;;;4184618;28;21458;-71
2021/12/22 02:46:26;;;;;;;28.73;13.63;;;;;;;;;;4190144;28;21235;-73
2021/12/22 02:48:53;;;;;;;30.27;14.23;;;;;;;;;;4186230;28;21597;-73
2021/12/22 02:51:20;;;;;;;35.57;15.37;;;;;;;;;;4190276;28;20471;-72
2021/12/22 02:54:40;;;;;;;34.53;14.53;;;;;;;;;;4193077;28;21011;-71
2021/12/22 02:59:16;;;;;;;29.80;13.33;;;;;;;;;;4206024;28;20287;-72
2021/12/22 03:04:13;;;;;;;29.97;12.67;;;;;;;;;;4218750;28;21217;-70
2021/12/22 03:06:50;;;;;;;29.27;13.87;;;;;;;;;;4204157;28;20545;-72
2021/12/22 03:09:18;;;;;;;28.43;12.27;;;;;;;;;;4185966;28;21248;-72
2021/12/22 03:11:45;;;;;;;31.50;12.90;;;;;;;;;;4192283;28;20332;-71
2021/12/22 03:14:12;;;;;;;25.40;11.97;;;;;;;;;;4206729;28;21976;-70
2021/12/22 03:16:42;;;;;;;30.50;12.20;;;;;;;;;;4212008;28;20240;-71
2021/12/22 03:19:10;;;;;;;28.87;12.53;;;;;;;;;;4204962;28;20256;-72
2021/12/22 03:21:37;;;;;;;28.67;11.77;;;;;;;;;;4187579;28;20242;-71
2021/12/22 03:24:04;;;;;;;26.60;12.80;;;;;;;;;;4198060;28;23553;-71
2021/12/22 03:26:31;;;;;;;32.30;13.40;;;;;;;;;;4207974;28;20429;-70
2021/12/22 03:28:58;;;;;;;27.23;12.47;;;;;;;;;;4211665;28;25811;-72
2021/12/22 03:31:24;;;;;;;25.20;11.90;;;;;;;;;;4213182;28;21174;-72
2021/12/22 03:33:51;;;;;;;30.60;12.53;;;;;;;;;;4187664;28;21207;-72
2021/12/22 03:36:18;;;;;;;26.40;11.87;;;;;;;;;;4219265;28;20278;-72
2021/12/22 03:38:46;;;;;;;29.63;12.40;;;;;;;;;;4200054;28;20238;-70
2021/12/22 03:41:12;;;;;;;29.47;11.63;;;;;;;;;;4207817;28;20264;-71
2021/12/22 03:43:39;;;;;;;31.40;12.57;;;;;;;;;;4213517;28;20303;-71
2021/12/22 03:46:07;;;;;;;23.60;10.97;;;;;;;;;;4195800;28;20237;-72
2021/12/22 03:48:33;;;;;;;27.13;11.27;;;;;;;;;;4217530;28;20266;-72
2021/12/22 03:51:00;;;;;;;26.23;12.30;;;;;;;;;;4212623;28;20232;-72
2021/12/22 03:53:26;;;;;;;25.73;11.87;;;;;;;;;;4192681;28;20271;-73
2021/12/22 03:55:53;;;;;;;29.23;11.07;;;;;;;;;;4200035;28;20305;-71
2021/12/22 03:58:19;;;;;;;27.37;11.50;;;;;;;;;;4200382;28;20755;-71
2021/12/22 04:00:46;;;;;;;28.57;12.00;;;;;;;;;;4194858;28;20247;-71
2021/12/22 04:03:17;;;;;;;28.90;11.60;;;;;;;;;;4212516;28;25422;-72
2021/12/22 04:05:45;;;;;;;32.73;12.77;;;;;;;;;;4206544;28;20240;-72
2021/12/22 04:08:13;;;;;;;31.33;12.53;;;;;;;;;;4209886;28;20235;-73
2021/12/22 04:10:39;;;;;;;27.13;11.70;;;;;;;;;;4197564;28;22960;-73
2021/12/22 04:13:07;;;;;;;28.37;11.50;;;;;;;;;;4197597;28;20233;-73
2021/12/22 04:15:34;;;;;;;29.00;12.97;;;;;;;;;;4193663;28;21821;-74
2021/12/22 04:18:01;;;;;;;28.33;12.37;;;;;;;;;;4197407;28;20945;-71
2021/12/22 04:20:29;;;;;;;34.07;11.93;;;;;;;;;;4199534;28;20318;-69
2021/12/22 04:22:56;;;;;;;24.80;12.23;;;;;;;;;;4198905;28;22436;-71
2021/12/22 04:25:22;;;;;;;29.43;12.97;;;;;;;;;;4185858;28;20224;-71
2021/12/22 04:27:49;;;;;;;30.17;12.90;;;;;;;;;;4202983;28;21236;-74
2021/12/22 04:30:16;;;;;;;27.80;13.43;;;;;;;;;;4195623;28;20701;-71
2021/12/22 04:32:42;;;;;;;31.90;14.00;;;;;;;;;;4191382;28;20331;-71
2021/12/22 04:35:09;;;;;;;28.80;13.50;;;;;;;;;;4205181;28;20239;-71
2021/12/22 04:37:35;;;;;;;26.63;12.10;;;;;;;;;;4189410;28;21431;-71
2021/12/22 04:40:03;;;;;;;32.97;12.70;;;;;;;;;;4199510;28;20258;-72
2021/12/22 04:42:29;;;;;;;28.60;13.17;;;;;;;;;;4187176;28;23001;-71
2021/12/22 04:44:57;;;;;;;28.00;12.53;;;;;;;;;;4201395;28;22925;-71
2021/12/22 04:47:24;;;;;;;29.03;12.23;;;;;;;;;;4198151;28;20236;-71
2021/12/22 04:49:50;;;;;;;27.10;12.33;;;;;;;;;;4199277;28;20305;-74
2021/12/22 04:52:20;;;;;;;26.37;12.40;;;;;;;;;;4201522;28;20235;-71
2021/12/22 04:55:03;;;;;;;26.07;12.40;;;;;;;;;;4191802;28;20406;-71
2021/12/22 04:57:31;;;;;;;24.17;12.53;;;;;;;;;;4176012;28;21263;-73
2021/12/22 04:59:57;;;;;;;25.90;12.87;;;;;;;;;;4190685;28;20246;-70
2021/12/22 05:02:24;;;;;;;26.47;12.03;;;;;;;;;;4198253;28;20291;-71
2021/12/22 05:04:50;;;;;;;28.33;12.10;;;;;;;;;;4183306;28;20292;-72
2021/12/22 05:07:17;;;;;;;24.97;12.23;;;;;;;;;;4184944;28;21192;-71
2021/12/22 05:09:43;;;;;;;26.33;12.47;;;;;;;;;;4189309;28;20237;-72
2021/12/22 05:12:09;;;;;;;29.53;12.17;;;;;;;;;;4200623;28;20237;-71
2021/12/22 05:14:36;;;;;;;25.73;12.47;;;;;;;;;;4195477;28;20288;-72
2021/12/22 05:17:03;;;;;;;26.37;11.90;;;;;;;;;;4188923;28;21901;-72
2021/12/22 05:19:29;;;;;;;26.33;12.43;;;;;;;;;;4197566;28;20485;-71
2021/12/22 05:21:56;;;;;;;24.93;12.00;;;;;;;;;;4200854;28;20232;-70
2021/12/22 05:24:23;;;;;;;21.53;11.20;;;;;;;;;;4188326;28;20247;-71
2021/12/22 05:26:49;;;;;;;23.47;11.23;;;;;;;;;;4184461;28;22839;-72
2021/12/22 05:29:16;;;;;;;21.67;10.83;;;;;;;;;;4198766;28;20259;-71
2021/12/22 05:31:43;;;;;;;22.77;11.23;;;;;;;;;;4190241;28;20264;-71
2021/12/22 05:34:09;;;;;;;24.50;11.80;;;;;;;;;;4190092;28;20239;-72
2021/12/22 05:36:36;;;;;;;27.83;12.13;;;;;;;;;;4192476;28;21448;-72
2021/12/22 05:39:02;;;;;;;26.43;12.37;;;;;;;;;;4189482;28;20309;-72
2021/12/22 05:41:29;;;;;;;28.53;13.43;;;;;;;;;;4202874;28;21580;-71
2021/12/22 05:43:55;;;;;;;27.27;13.00;;;;;;;;;;4195534;28;21434;-72
2021/12/22 05:46:22;;;;;;;33.97;14.47;;;;;;;;;;4212324;28;20239;-72
2021/12/22 05:48:49;;;;;;;33.53;14.27;;;;;;;;;;4178964;28;20291;-72
2021/12/22 05:51:15;;;;;;;31.53;14.10;;;;;;;;;;4184893;28;20247;-70
2021/12/22 05:53:42;;;;;;;33.13;14.93;;;;;;;;;;4189315;28;20532;-70
2021/12/22 05:56:08;;;;;;;32.20;14.83;;;;;;;;;;4187834;28;20243;-71
2021/12/22 05:58:34;;;;;;;31.13;14.80;;;;;;;;;;4199607;28;20256;-72
2021/12/22 06:01:01;;;;;;;31.43;14.00;;;;;;;;;;4214968;28;20481;-71
2021/12/22 06:03:27;;;;;;;31.73;14.50;;;;;;;;;;4199301;28;21314;-72
2021/12/22 06:05:54;;;;;;;29.43;14.63;;;;;;;;;;4192712;28;21975;-73
2021/12/22 06:08:20;;;;;;;30.10;15.20;;;;;;;;;;4212234;28;22072;-70
2021/12/22 06:10:46;;;;;;;32.07;15.90;;;;;;;;;;4196643;28;20262;-71
2021/12/22 06:13:13;;;;;;;35.87;15.87;;;;;;;;;;4196392;28;20241;-70
2021/12/22 06:15:40;;;;;;;36.20;15.03;;;;;;;;;;4191041;28;20244;-70
2021/12/22 06:18:07;;;;;;;32.43;15.70;;;;;;;;;;4202868;28;20228;-71
2021/12/22 06:20:34;;;;;;;33.87;15.63;;;;;;;;;;4201114;28;20381;-72
2021/12/22 06:23:00;;;;;;;29.60;15.10;;;;;;;;;;4192262;28;22952;-71
2021/12/22 06:25:27;;;;;;;38.70;17.03;;;;;;;;;;4199698;28;20249;-72
2021/12/22 06:27:54;;;;;;;35.63;14.97;;;;;;;;;;4225371;28;20233;-72
2021/12/22 06:30:20;;;;;;;33.80;15.03;;;;;;;;;;4196282;28;20229;-71
2021/12/22 06:32:50;;;;;;;37.57;17.13;;;;;;;;;;4207663;28;20252;-72
2021/12/22 06:35:17;;;;;;;37.13;16.23;;;;;;;;;;4216640;28;20661;-72
2021/12/22 06:37:44;;;;;;;34.60;15.67;;;;;;;;;;4222729;28;20240;-72
2021/12/22 06:40:11;;;;;;;33.00;15.17;;;;;;;;;;4206652;28;21244;-71
2021/12/22 06:42:38;;;;;;;34.77;16.33;;;;;;;;;;4203799;28;20265;-71
2021/12/22 06:45:06;;;;;;;35.30;15.07;;;;;;;;;;4210433;28;20243;-71
2021/12/22 06:47:33;;;;;;;38.57;16.10;;;;;;;;;;4216893;28;20322;-71
2021/12/22 06:50:00;;;;;;;35.33;15.93;;;;;;;;;;4215009;28;20304;-71
2021/12/22 06:52:26;;;;;;;37.10;15.87;;;;;;;;;;4206345;28;20651;-73
2021/12/22 06:54:53;;;;;;;38.40;17.00;;;;;;;;;;4202856;28;20452;-73
2021/12/22 06:57:21;;;;;;;41.50;17.03;;;;;;;;;;4220650;28;20222;-72
2021/12/22 06:59:47;;;;;;;35.77;16.23;;;;;;;;;;4196462;28;20372;-70
2021/12/22 07:02:14;;;;;;;34.40;15.67;;;;;;;;;;4225107;28;20233;-71
2021/12/22 07:04:41;;;;;;;39.23;16.00;;;;;;;;;;4216195;28;20234;-77
2021/12/22 07:07:08;;;;;;;38.43;17.17;;;;;;;;;;4230682;28;20244;-71
2021/12/22 07:09:34;;;;;;;37.13;16.30;;;;;;;;;;4230675;28;20233;-70
2021/12/22 07:12:01;;;;;;;37.73;17.20;;;;;;;;;;4225924;28;20686;-75
2021/12/22 07:14:28;;;;;;;41.43;17.33;;;;;;;;;;4206167;28;20703;-71
2021/12/22 07:16:56;;;;;;;39.93;18.17;;;;;;;;;;4242258;28;22699;-73
2021/12/22 07:19:23;;;;;;;41.37;19.03;;;;;;;;;;4225243;28;20240;-71
2021/12/22 07:21:49;;;;;;;42.10;18.50;;;;;;;;;;4230591;28;20228;-74
2021/12/22 07:24:16;;;;;;;39.93;17.23;;;;;;;;;;4229302;28;20238;-73
2021/12/22 07:26:42;;;;;;;40.87;17.87;;;;;;;;;;4234137;28;20341;-71
2021/12/22 07:29:09;;;;;;;39.57;16.73;;;;;;;;;;4192921;28;20711;-77
2021/12/22 07:31:35;;;;;;;40.77;18.33;;;;;;;;;;4238721;28;20232;-72
2021/12/22 07:34:15;;;;;;;41.50;18.07;;;;;;;;;;4253465;28;22658;-76
2021/12/22 07:36:50;;;;;;;41.50;17.90;;;;;;;;;;4203793;28;20839;-74
2021/12/22 07:39:17;;;;;;;38.93;18.37;;;;;;;;;;4237434;28;21477;-72
2021/12/22 07:41:43;;;;;;;44.50;19.07;;;;;;;;;;4239747;28;20347;-73
2021/12/22 07:44:10;;;;;;;49.73;20.93;;;;;;;;;;4233638;28;20240;-72
2021/12/22 07:46:36;;;;;;;45.57;20.00;;;;;;;;;;4220859;28;20316;-72
2021/12/22 07:49:03;;;;;;;42.50;19.03;;;;;;;;;;4208266;28;20311;-73
2021/12/22 07:51:29;;;;;;;41.63;17.77;;;;;;;;;;4240703;28;20250;-71
2021/12/22 07:53:56;;;;;;;41.00;18.80;;;;;;;;;;4234127;28;21700;-72
2021/12/22 07:56:22;;;;;;;43.07;18.13;;;;;;;;;;4194125;28;22443;-71
2021/12/22 07:58:49;;;;;;;40.27;17.33;;;;;;;;;;4215948;28;21535;-72
2021/12/22 08:01:15;;;;;;;42.53;18.50;;;;;;;;;;4218061;28;20303;-74
2021/12/22 08:03:42;;;;;;;44.77;18.40;;;;;;;;;;4204631;28;22847;-72
2021/12/22 08:06:10;;;;;;;45.27;18.07;;;;;;;;;;4211951;28;20230;-74
2021/12/22 08:08:37;;;;;;;47.43;17.13;;;;;;;;;;4195103;28;20230;-71
2021/12/22 08:11:04;;;;;;;39.87;17.07;;;;;;;;;;4197848;28;20405;-72
2021/12/22 08:13:31;;;;;;;46.50;17.77;;;;;;;;;;4212693;28;20241;-73
2021/12/22 08:15:57;;;;;;;42.37;15.87;;;;;;;;;;4216386;28;25659;-73
2021/12/22 08:18:24;;;;;;;46.37;17.77;;;;;;;;;;4221766;28;20232;-73
2021/12/22 08:20:50;;;;;;;49.10;17.63;;;;;;;;;;4204067;28;20376;-72
2021/12/22 08:23:18;;;;;;;41.73;17.03;;;;;;;;;;4211716;28;21436;-74
2021/12/22 08:25:46;;;;;;;46.47;16.83;;;;;;;;;;4203794;28;20271;-70
2021/12/22 08:28:12;;;;;;;43.07;16.73;;;;;;;;;;4206066;28;22183;-71
2021/12/22 08:30:38;;;;;;;40.50;17.13;;;;;;;;;;4187168;28;22157;-70
2021/12/22 08:33:19;;;;;;;46.10;18.67;;;;;;;;;;4202448;28;20333;-73
2021/12/22 08:38:51;;;;;;;42.83;16.57;;;;;;;;;;4215944;28;20237;-71
2021/12/22 08:41:18;;;;;;;46.37;17.73;;;;;;;;;;4210673;28;20445;-73
2021/12/22 08:43:47;;;;;;;47.60;17.77;;;;;;;;;;4202619;28;20305;-71
2021/12/22 08:46:14;;;;;;;44.20;18.27;;;;;;;;;;4211301;28;20240;-73
2021/12/22 08:48:40;;;;;;;43.80;17.50;;;;;;;;;;4195934;28;20403;-72
2021/12/22 08:51:07;;;;;;;42.73;16.67;;;;;;;;;;4182610;28;22011;-70
2021/12/22 08:53:33;;;;;;;43.80;16.83;;;;;;;;;;4223094;28;20247;-73
2021/12/22 08:56:00;;;;;;;48.73;17.63;;;;;;;;;;4209610;28;21574;-70
2021/12/22 08:58:27;;;;;;;40.73;17.43;;;;;;;;;;4229109;28;20726;-72
2021/12/22 09:00:53;;;;;;;47.67;18.30;;;;;;;;;;4217343;28;20228;-72
2021/12/22 09:03:20;;;;;;;49.47;18.27;;;;;;;;;;4212526;28;20248;-74
2021/12/22 09:05:47;;;;;;;49.20;17.83;;;;;;;;;;4208770;28;21151;-74
2021/12/22 09:08:13;;;;;;;44.37;16.53;;;;;;;;;;4236659;28;20332;-71
2021/12/22 09:10:39;;;;;;;44.13;17.27;;;;;;;;;;4219460;28;22146;-75
2021/12/22 09:13:07;;;;;;;45.70;16.80;;;;;;;;;;4207272;28;20404;-70
2021/12/22 09:15:35;;;;;;;48.23;18.03;;;;;;;;;;4225292;28;21250;-74
2021/12/22 09:18:01;;;;;;;42.97;16.17;;;;;;;;;;4214154;28;22112;-74
2021/12/22 09:20:29;;;;;;;40.13;16.87;;;;;;;;;;4223200;28;22913;-70
2021/12/22 09:22:56;;;;;;;44.37;18.57;;;;;;;;;;4205387;28;20483;-71
2021/12/22 09:25:22;;;;;;;38.37;18.00;;;;;;;;;;4208556;28;20234;-70
2021/12/22 09:27:49;;;;;;;43.07;16.77;;;;;;;;;;4212795;28;20245;-72
2021/12/22 09:30:15;;;;;;;43.20;17.03;;;;;;;;;;4229587;28;20231;-72
2021/12/22 09:32:42;;;;;;;46.67;18.07;;;;;;;;;;4211843;28;20498;-73
2021/12/22 09:35:09;;;;;;;46.77;18.30;;;;;;;;;;4226687;28;20226;-71
2021/12/22 09:37:35;;;;;;;53.07;19.50;;;;;;;;;;4221107;28;21623;-70
2021/12/22 09:40:03;;;;;;;46.37;18.50;;;;;;;;;;4202326;28;20240;-71
2021/12/22 09:42:30;;;;;;;46.97;18.10;;;;;;;;;;4213539;28;20237;-69
2021/12/22 09:45:00;;;;;;;44.53;18.43;;;;;;;;;;4193125;28;20220;-70
2021/12/22 09:47:30;;;;;;;46.23;17.87;;;;;;;;;;4219077;28;20228;-70
2021/12/22 09:50:11;;;;;;;40.67;17.77;;;;;;;;;;4279058;28;20503;-70
2021/12/22 09:52:38;;;;;;;49.63;19.33;;;;;;;;;;4266328;28;22065;-70
2021/12/22 09:55:07;;;;;;;45.13;19.10;;;;;;;;;;4187135;28;20642;-71
2021/12/22 09:57:33;;;;;;;44.83;18.73;;;;;;;;;;4207282;28;20956;-70
2021/12/22 10:00:01;;;;;;;39.73;18.23;;;;;;;;;;4209370;28;21142;-70
2021/12/22 10:02:29;;;;;;;44.37;18.00;;;;;;;;;;4210754;28;20234;-71
2021/12/22 10:04:57;;;;;;;39.13;17.43;;;;;;;;;;4207753;28;20242;-72
2021/12/22 10:07:27;;;;;;;41.33;16.53;;;;;;;;;;4199758;28;20260;-69
2021/12/22 10:10:02;;;;;;;42.07;17.60;;;;;;;;;;4204877;28;20247;-71
2021/12/22 10:12:29;;;;;;;45.10;17.87;;;;;;;;;;4214009;28;20233;-70
2021/12/22 10:14:57;;;;;;;46.50;17.97;;;;;;;;;;4201079;28;20240;-71
2021/12/22 10:17:41;;;;;;;45.00;16.53;;;;;;;;;;4209220;28;20244;-71
2021/12/22 10:20:12;;;;;;;52.87;17.93;;;;;;;;;;4217344;28;20240;-75
2021/12/22 10:22:43;;;;;;;42.23;16.77;;;;;;;;;;4213412;28;20236;-74
2021/12/22 10:25:11;;;;;;;39.80;16.20;;;;;;;;;;4204627;28;22877;-72
2021/12/22 10:27:39;;;;;;;38.10;16.43;;;;;;;;;;4222174;28;22331;-71
2021/12/22 10:30:25;;;;;;;41.93;16.77;;;;;;;;;;4216273;28;20931;-72
2021/12/22 10:33:11;;;;;;;42.90;16.93;;;;;;;;;;4204208;28;21286;-72
2021/12/22 10:35:39;;;;;;;41.50;16.27;;;;;;;;;;4190232;28;20241;-71
2021/12/22 10:38:07;;;;;;;39.17;16.53;;;;;;;;;;4239910;28;20229;-72
2021/12/22 10:40:35;;;;;;;41.87;16.13;;;;;;;;;;4195840;28;20233;-72
2021/12/22 10:43:02;;;;;;;43.43;17.40;;;;;;;;;;4195024;28;20298;-73
2021/12/22 10:45:30;;;;;;;44.83;17.97;;;;;;;;;;4203908;28;20230;-73
2021/12/22 10:50:44;;;;;;;47.37;18.93;;;;;;;;;;4194573;28;23238;-72
2021/12/22 10:53:14;;;;;;;41.33;17.67;;;;;;;;;;4199471;28;20234;-73
2021/12/22 10:55:44;;;;;;;42.17;17.70;;;;;;;;;;4193270;28;21283;-71
2021/12/22 10:58:19;;;;;;;43.07;16.87;;;;;;;;;;4202741;28;23891;-71
2021/12/22 11:01:03;;;;;;;44.67;17.23;;;;;;;;;;4200534;28;20236;-71
2021/12/22 11:03:36;;;;;;;46.43;17.60;;;;;;;;;;4203087;28;20240;-71
2021/12/22 11:06:08;;;;;;;39.27;17.60;;;;;;;;;;4197239;28;20407;-71
2021/12/22 11:08:35;;;;;;;47.53;17.90;;;;;;;;;;4202745;28;20232;-70
2021/12/22 11:11:14;;;;;;;41.87;17.30;;;;;;;;;;4200908;28;20308;-72
2021/12/22 11:13:41;;;;;;;39.97;16.73;;;;;;;;;;4197630;28;20384;-69
2021/12/22 11:16:15;;;;;;;42.70;18.13;;;;;;;;;;4197697;28;21888;-70
2021/12/22 11:18:41;;;;;;;46.23;18.77;;;;;;;;;;4190417;28;20300;-73
2021/12/22 11:21:15;;;;;;;42.90;17.47;;;;;;;;;;4192279;28;20380;-70
2021/12/22 11:23:41;;;;;;;43.10;17.17;;;;;;;;;;4192727;28;20308;-70
2021/12/22 11:26:08;;;;;;;45.40;18.50;;;;;;;;;;4203579;28;20235;-71
2021/12/22 11:28:35;;;;;;;48.10;17.43;;;;;;;;;;4196610;28;20291;-70
2021/12/22 11:31:03;;;;;;;44.97;17.67;;;;;;;;;;4198832;28;22051;-73
2021/12/22 11:33:31;;;;;;;46.93;18.00;;;;;;;;;;4194406;28;20229;-73
2021/12/22 11:35:57;;;;;;;44.03;17.33;;;;;;;;;;4201633;28;22107;-73
2021/12/22 11:38:26;;;;;;;47.10;17.63;;;;;;;;;;4198062;28;20995;-69
2021/12/22 11:41:07;;;;;;;51.40;18.63;;;;;;;;;;4186092;28;20316;-69
2021/12/22 11:43:35;;;;;;;46.03;18.40;;;;;;;;;;4178917;28;20238;-69
2021/12/22 11:46:02;;;;;;;45.33;18.13;;;;;;;;;;4195661;28;20505;-69
2021/12/22 11:48:29;;;;;;;40.93;17.57;;;;;;;;;;4190915;28;21484;-72
2021/12/22 11:50:56;;;;;;;49.07;19.17;;;;;;;;;;4201107;28;25538;-69
2021/12/22 11:53:23;;;;;;;41.27;17.37;;;;;;;;;;4205018;28;20820;-70
2021/12/22 11:55:51;;;;;;;44.77;17.90;;;;;;;;;;4208039;28;24038;-69
2021/12/22 11:58:19;;;;;;;50.40;20.03;;;;;;;;;;4200628;28;20231;-69
2021/12/22 12:00:54;;;;;;;54.97;19.23;;;;;;;;;;4184566;28;21606;-69
2021/12/22 12:03:22;;;;;;;56.17;20.13;;;;;;;;;;4194203;28;20229;-71
2021/12/22 12:06:00;;;;;;;46.37;18.90;;;;;;;;;;4197357;28;20236;-72
2021/12/22 12:08:32;;;;;;;49.50;19.70;;;;;;;;;;4209146;28;20685;-72
2021/12/22 12:10:59;;;;;;;45.27;18.80;;;;;;;;;;4203422;28;20233;-71
2021/12/22 12:13:35;;;;;;;48.53;19.20;;;;;;;;;;4228021;28;20656;-72
2021/12/22 12:21:57;;;;;;;48.90;19.57;;;;;;;;;;4205327;28;26740;-73
2021/12/22 12:24:37;;;;;;;51.93;20.30;;;;;;;;;;4201758;28;21107;-72
2021/12/22 12:27:30;;;;;;;45.60;18.13;;;;;;;;;;4204428;28;20224;-71
2021/12/22 12:29:57;;;;;;;52.83;19.40;;;;;;;;;;4181830;28;20651;-72
2021/12/22 12:32:39;;;;;;;47.13;19.60;;;;;;;;;;4174190;28;20343;-74
2021/12/22 12:35:17;;;;;;;46.47;20.13;;;;;;;;;;4203113;28;20353;-72
2021/12/22 12:38:00;;;;;;;43.40;18.30;;;;;;;;;;4192174;28;26564;-76
2021/12/22 12:40:44;;;;;;;48.60;18.33;;;;;;;;;;4190987;28;20258;-72
2021/12/22 12:43:11;;;;;;;54.50;19.40;;;;;;;;;;4201076;28;20238;-75
2021/12/22 12:45:42;;;;;;;58.37;21.03;;;;;;;;;;4193131;28;20230;-73
2021/12/22 12:48:25;;;;;;;59.47;20.77;;;;;;;;;;4196211;28;20232;-74
2021/12/22 12:51:10;;;;;;;56.93;20.33;;;;;;;;;;4206940;28;20232;-71
2021/12/22 12:53:38;;;;;;;45.60;19.83;;;;;;;;;;4192624;28;27042;-71
2021/12/22 12:56:07;;;;;;;53.20;20.80;;;;;;;;;;4195220;28;23729;-72
2021/12/22 12:58:34;;;;;;;51.03;20.13;;;;;;;;;;4171235;28;20400;-73
2021/12/22 13:01:00;;;;;;;47.40;20.37;;;;;;;;;;4190640;28;20233;-74
2021/12/22 13:03:27;;;;;;;54.50;20.03;;;;;;;;;;4195127;28;23840;-72
2021/12/22 13:05:53;;;;;;;55.50;20.33;;;;;;;;;;4197395;28;20268;-73
2021/12/22 13:08:20;;;;;;;46.60;19.50;;;;;;;;;;4199179;28;20234;-74
2021/12/22 13:10:51;;;;;;;51.30;19.73;;;;;;;;;;4189736;28;20225;-75
2021/12/22 13:13:20;;;;;;;49.60;19.73;;;;;;;;;;4200565;28;21414;-71
2021/12/22 13:15:46;;;;;;;51.13;19.73;;;;;;;;;;4186581;28;20310;-70
2021/12/22 13:18:15;;;;;;;55.37;20.13;;;;;;;;;;4180680;28;20625;-71
2021/12/22 13:20:42;;;;;;;45.83;19.03;;;;;;;;;;4206057;28;20237;-72
2021/12/22 13:23:31;;;;;;;48.70;19.23;;;;;;;;;;4198797;28;20226;-75
2021/12/22 13:25:58;;;;;;;50.73;19.03;;;;;;;;;;4196503;28;26240;-79
2021/12/22 13:28:26;;;;;;;53.53;21.37;;;;;;;;;;4192631;28;20229;-72
2021/12/22 13:30:55;;;;;;;55.43;20.60;;;;;;;;;;4186234;28;20267;-75
2021/12/22 13:33:23;;;;;;;50.93;20.93;;;;;;;;;;4193968;28;20264;-71
2021/12/22 13:35:51;;;;;;;49.97;19.23;;;;;;;;;;4189109;28;20236;-72
2021/12/22 13:38:23;;;;;;;46.30;18.50;;;;;;;;;;4194301;28;20275;-74
2021/12/22 13:40:51;;;;;;;48.13;19.07;;;;;;;;;;4204541;28;20246;-72
2021/12/22 13:43:18;;;;;;;45.00;19.87;;;;;;;;;;4213836;28;22468;-73
2021/12/22 13:45:45;;;;;;;42.40;16.97;;;;;;;;;;4215383;28;20290;-76
2021/12/22 13:48:16;;;;;;;38.53;17.47;;;;;;;;;;4200538;28;21772;-74
2021/12/22 13:50:43;;;;;;;45.70;17.70;;;;;;;;;;4193868;28;22305;-76
2021/12/22 13:53:09;;;;;;;50.00;18.40;;;;;;;;;;4218613;28;20344;-74
2021/12/22 13:55:36;;;;;;;48.07;18.30;;;;;;;;;;4215963;28;20316;-77
2021/12/22 13:58:34;;;;;;;49.80;18.50;;;;;;;;;;4197261;28;20260;-75
2021/12/22 14:01:11;;;;;;;48.07;18.77;;;;;;;;;;4161237;28;20311;-76
2021/12/22 14:03:38;;;;;;;43.57;17.83;;;;;;;;;;4200014;28;20233;-76
2021/12/22 14:06:09;;;;;;;45.33;17.30;;;;;;;;;;4203052;28;20240;-77
2021/12/22 14:08:36;;;;;;;41.67;16.97;;;;;;;;;;4216048;28;21826;-77
2021/12/22 14:11:03;;;;;;;46.90;18.93;;;;;;;;;;4211188;28;20285;-80
2021/12/22 14:13:29;;;;;;;42.83;18.23;;;;;;;;;;4214144;28;20266;-73
2021/12/22 14:15:56;;;;;;;43.27;17.93;;;;;;;;;;4218642;28;21228;-72
2021/12/22 14:18:33;;;;;;;45.93;18.27;;;;;;;;;;4242701;28;20352;-73
2021/12/22 14:21:00;;;;;;;40.47;16.57;;;;;;;;;;4226282;28;20272;-73
2021/12/22 14:23:26;;;;;;;41.73;17.30;;;;;;;;;;4219461;28;20244;-76
2021/12/22 14:26:06;;;;;;;44.27;18.30;;;;;;;;;;4219508;28;20672;-77
2021/12/22 14:28:35;;;;;;;46.80;18.00;;;;;;;;;;4199543;28;20396;-72
2021/12/22 14:31:05;;;;;;;43.20;17.10;;;;;;;;;;4207718;28;21871;-75
2021/12/22 14:33:33;;;;;;;38.60;16.80;;;;;;;;;;4240593;28;20249;-72
2021/12/22 14:36:03;;;;;;;46.00;18.43;;;;;;;;;;4232266;28;20442;-72
2021/12/22 14:38:33;;;;;;;50.13;17.30;;;;;;;;;;4243434;28;20237;-76
2021/12/22 14:41:13;;;;;;;45.03;17.70;;;;;;;;;;4240529;28;20238;-75
2021/12/22 14:43:41;;;;;;;50.80;19.63;;;;;;;;;;4239422;28;20253;-76
2021/12/22 14:46:10;;;;;;;48.53;18.37;;;;;;;;;;4198890;28;20243;-77
2021/12/22 14:48:39;;;;;;;43.87;18.60;;;;;;;;;;4218169;28;20296;-73